createdAt,value
2019-02-15T20:00:14.937Z,22.83
2019-02-15T20:02:42.878Z,17.90
2019-02-15T20:05:11.158Z,21.00
2019-02-15T20:07:39.006Z,20.03
2019-02-15T20:10:09.491Z,22.27
2019-02-15T20:12:37.348Z,17.70
2019-02-15T20:15:05.792Z,19.10
2019-02-15T20:17:33.671Z,22.43
2019-02-15T20:20:01.306Z,21.97
2019-02-15T20:22:28.822Z,21.27
2019-02-15T20:24:56.355Z,23.23
2019-02-15T20:27:24.355Z,20.97
2019-02-15T20:29:51.847Z,24.60
2019-02-15T20:32:19.605Z,25.00
2019-02-15T20:34:47.099Z,28.67
2019-02-15T20:37:15.117Z,24.37
2019-02-15T20:39:42.826Z,22.83
2019-02-15T20:42:10.438Z,22.03
2019-02-15T20:44:38.099Z,23.70
2019-02-15T20:47:06.107Z,24.80
2019-02-15T20:49:33.765Z,27.27
2019-02-15T20:52:01.654Z,25.00
2019-02-15T20:54:29.238Z,28.50
2019-02-15T20:56:56.833Z,25.73
2019-02-15T20:59:24.767Z,26.03
2019-02-15T21:01:52.690Z,26.63
2019-02-15T21:04:20.274Z,27.07
2019-02-15T21:06:48.142Z,23.70
2019-02-15T21:09:16.706Z,25.60
2019-02-15T21:11:44.269Z,24.40
2019-02-15T21:14:11.916Z,25.47
2019-02-15T21:16:40.727Z,22.40
2019-02-15T21:19:08.382Z,26.37
2019-02-15T21:21:36.239Z,23.50
2019-02-15T21:24:04.199Z,16.47
2019-02-15T21:26:32.163Z,19.30
2019-02-15T21:29:00.177Z,19.30
2019-02-15T21:31:27.803Z,17.07
2019-02-15T21:33:56.173Z,16.27
2019-02-15T21:36:29.395Z,16.77
2019-02-15T21:38:58.069Z,18.87
2019-02-15T21:41:25.791Z,18.43
2019-02-15T21:43:53.648Z,21.57
2019-02-15T21:46:21.561Z,20.53
2019-02-15T21:48:49.486Z,20.40
2019-02-15T21:51:17.019Z,22.20
2019-02-15T21:53:44.934Z,20.70
2019-02-15T21:56:15.463Z,19.73
2019-02-15T21:58:43.203Z,21.70
2019-02-15T22:01:10.842Z,23.10
2019-02-15T22:03:38.348Z,21.00
2019-02-15T22:06:05.991Z,22.37
2019-02-15T22:08:34.257Z,21.20
2019-02-15T22:11:02.207Z,26.03
2019-02-15T22:13:30.146Z,23.67
2019-02-15T22:15:58.078Z,22.33
2019-02-15T22:18:25.810Z,22.00
2019-02-15T22:20:53.668Z,24.60
2019-02-15T22:23:21.896Z,19.17
2019-02-15T22:25:49.517Z,20.60
2019-02-15T22:28:17.742Z,19.10
2019-02-15T22:30:45.262Z,20.27
2019-02-15T22:33:13.158Z,16.80
2019-02-15T22:35:41.182Z,21.60
2019-02-15T22:38:08.804Z,22.97
2019-02-15T22:40:38.363Z,20.17
2019-02-15T22:43:25.276Z,21.20
2019-02-15T22:45:52.928Z,19.00
2019-02-15T22:48:20.895Z,28.17
2019-02-15T22:50:48.683Z,23.97
2019-02-15T22:53:16.613Z,25.77
2019-02-15T22:55:44.128Z,24.23
2019-02-15T22:58:12.070Z,21.63
2019-02-15T23:00:49.898Z,20.47
2019-02-15T23:03:19.550Z,21.23
2019-02-15T23:05:47.182Z,20.20
2019-02-15T23:08:15.035Z,22.10
2019-02-15T23:10:42.853Z,25.67
2019-02-15T23:13:10.547Z,20.97
2019-02-15T23:15:38.306Z,25.83
2019-02-15T23:18:05.996Z,26.17
2019-02-15T23:20:33.578Z,21.47
2019-02-15T23:23:01.082Z,22.67
2019-02-15T23:25:28.802Z,22.00
2019-02-15T23:27:56.825Z,25.73
2019-02-15T23:30:24.975Z,22.73
2019-02-15T23:32:52.875Z,22.63
2019-02-15T23:35:20.440Z,39.40
2019-02-15T23:37:47.958Z,35.00
2019-02-15T23:40:15.590Z,33.63
2019-02-15T23:42:44.063Z,32.67
2019-02-15T23:45:11.917Z,34.87
2019-02-15T23:47:39.363Z,29.13
2019-02-15T23:50:06.986Z,25.37
2019-02-15T23:52:34.473Z,20.73
2019-02-15T23:55:01.997Z,21.10
2019-02-15T23:57:29.857Z,19.80
2019-02-15T23:59:57.628Z,23.27
